sensor_id;sensor_type;location;lat;lon;timestamp;P1;durP1;ratioP1;P2;durP2;ratioP2
47796;SDS011;33558;50.922;14.068;2023-07-16T00:11:43;6.72;;;3.10;;
47796;SDS011;33558;50.922;14.068;2023-07-16T00:14:10;6.15;;;2.88;;
47796;SDS011;33558;50.922;14.068;2023-07-16T01:06:22;4.72;;;2.40;;
47796;SDS011;33558;50.922;14.068;2023-07-16T01:14:25;5.30;;;3.08;;
47796;SDS011;33558;50.922;14.068;2023-07-16T01:19:50;5.43;;;2.47;;
47796;SDS011;33558;50.922;14.068;2023-07-16T01:36:08;5.40;;;3.10;;
47796;SDS011;33558;50.922;14.068;2023-07-16T01:44:15;3.47;;;2.40;;
47796;SDS011;33558;50.922;14.068;2023-07-16T01:53:15;6.05;;;3.00;;
47796;SDS011;33558;50.922;14.068;2023-07-16T01:55:44;8.00;;;3.00;;
47796;SDS011;33558;50.922;14.068;2023-07-16T02:01:40;5.28;;;3.17;;
47796;SDS011;33558;50.922;14.068;2023-07-16T02:04:10;3.40;;;2.50;;
47796;SDS011;33558;50.922;14.068;2023-07-16T02:20:17;5.20;;;2.72;;
47796;SDS011;33558;50.922;14.068;2023-07-16T02:22:47;5.28;;;2.65;;
47796;SDS011;33558;50.922;14.068;2023-07-16T02:25:14;5.13;;;3.17;;
47796;SDS011;33558;50.922;14.068;2023-07-16T02:27:47;6.63;;;2.95;;
47796;SDS011;33558;50.922;14.068;2023-07-16T02:30:14;6.85;;;3.03;;
47796;SDS011;33558;50.922;14.068;2023-07-16T02:32:42;4.43;;;2.63;;
47796;SDS011;33558;50.922;14.068;2023-07-16T02:35:09;9.02;;;3.10;;
47796;SDS011;33558;50.922;14.068;2023-07-16T02:54:16;4.50;;;2.00;;
47796;SDS011;33558;50.922;14.068;2023-07-16T03:02:08;4.13;;;2.03;;
47796;SDS011;33558;50.922;14.068;2023-07-16T03:04:36;2.17;;;1.58;;
47796;SDS011;33558;50.922;14.068;2023-07-16T03:30:50;3.58;;;1.75;;
47796;SDS011;33558;50.922;14.068;2023-07-16T04:14:33;3.25;;;2.30;;
47796;SDS011;33558;50.922;14.068;2023-07-16T04:23:21;5.13;;;2.67;;
47796;SDS011;33558;50.922;14.068;2023-07-16T04:25:50;3.85;;;2.47;;
47796;SDS011;33558;50.922;14.068;2023-07-16T04:52:09;3.85;;;2.08;;
47796;SDS011;33558;50.922;14.068;2023-07-16T04:54:41;4.18;;;2.65;;
47796;SDS011;33558;50.922;14.068;2023-07-16T04:57:11;5.47;;;2.88;;
47796;SDS011;33558;50.922;14.068;2023-07-16T04:59:39;3.72;;;2.60;;
47796;SDS011;33558;50.922;14.068;2023-07-16T05:02:06;4.63;;;2.40;;
47796;SDS011;33558;50.922;14.068;2023-07-16T05:04:33;3.40;;;2.83;;
47796;SDS011;33558;50.922;14.068;2023-07-16T05:19:32;4.88;;;2.45;;
47796;SDS011;33558;50.922;14.068;2023-07-16T05:22:02;5.97;;;2.47;;
47796;SDS011;33558;50.922;14.068;2023-07-16T05:33:48;6.07;;;2.58;;
47796;SDS011;33558;50.922;14.068;2023-07-16T05:51:28;6.40;;;2.30;;
47796;SDS011;33558;50.922;14.068;2023-07-16T05:53:55;3.75;;;2.22;;
47796;SDS011;33558;50.922;14.068;2023-07-16T05:56:22;3.53;;;2.28;;
47796;SDS011;33558;50.922;14.068;2023-07-16T06:48:33;3.40;;;2.17;;
47796;SDS011;33558;50.922;14.068;2023-07-16T08:15:34;1.60;;;1.30;;
47796;SDS011;33558;50.922;14.068;2023-07-16T08:18:02;2.75;;;1.40;;
47796;SDS011;33558;50.922;14.068;2023-07-16T09:18:30;2.72;;;1.45;;
47796;SDS011;33558;50.922;14.068;2023-07-16T09:20:58;2.28;;;1.60;;
47796;SDS011;33558;50.922;14.068;2023-07-16T09:23:29;1.77;;;1.60;;
47796;SDS011;33558;50.922;14.068;2023-07-16T09:25:56;2.50;;;1.67;;
47796;SDS011;33558;50.922;14.068;2023-07-16T09:31:36;2.42;;;1.55;;
47796;SDS011;33558;50.922;14.068;2023-07-16T09:34:15;4.35;;;1.70;;
47796;SDS011;33558;50.922;14.068;2023-07-16T09:43:24;1.98;;;1.30;;
47796;SDS011;33558;50.922;14.068;2023-07-16T11:32:49;3.63;;;1.60;;
47796;SDS011;33558;50.922;14.068;2023-07-16T11:35:18;3.30;;;1.83;;
47796;SDS011;33558;50.922;14.068;2023-07-16T12:13:50;2.58;;;1.85;;
47796;SDS011;33558;50.922;14.068;2023-07-16T12:22:24;2.38;;;1.60;;
47796;SDS011;33558;50.922;14.068;2023-07-16T12:30:18;2.65;;;1.58;;
47796;SDS011;33558;50.922;14.068;2023-07-16T12:33:10;2.58;;;1.48;;
47796;SDS011;33558;50.922;14.068;2023-07-16T12:39:30;4.88;;;1.90;;
47796;SDS011;33558;50.922;14.068;2023-07-16T12:42:10;2.53;;;1.50;;
47796;SDS011;33558;50.922;14.068;2023-07-16T12:44:36;2.70;;;1.50;;
47796;SDS011;33558;50.922;14.068;2023-07-16T12:50:16;2.40;;;1.45;;
47796;SDS011;33558;50.922;14.068;2023-07-16T12:52:44;2.55;;;1.52;;
47796;SDS011;33558;50.922;14.068;2023-07-16T12:55:11;2.80;;;1.60;;
47796;SDS011;33558;50.922;14.068;2023-07-16T12:57:39;3.35;;;1.75;;
47796;SDS011;33558;50.922;14.068;2023-07-16T13:00:06;3.65;;;1.48;;
47796;SDS011;33558;50.922;14.068;2023-07-16T13:02:35;1.80;;;1.60;;
47796;SDS011;33558;50.922;14.068;2023-07-16T13:05:03;1.75;;;1.52;;
47796;SDS011;33558;50.922;14.068;2023-07-16T13:07:33;2.35;;;1.50;;
47796;SDS011;33558;50.922;14.068;2023-07-16T13:10:03;3.50;;;1.63;;
47796;SDS011;33558;50.922;14.068;2023-07-16T13:12:31;3.30;;;1.60;;
47796;SDS011;33558;50.922;14.068;2023-07-16T13:14:58;3.05;;;1.60;;
47796;SDS011;33558;50.922;14.068;2023-07-16T13:17:24;1.95;;;1.40;;
47796;SDS011;33558;50.922;14.068;2023-07-16T13:19:51;4.45;;;1.85;;
47796;SDS011;33558;50.922;14.068;2023-07-16T13:22:18;2.65;;;1.52;;
47796;SDS011;33558;50.922;14.068;2023-07-16T13:24:46;2.67;;;1.60;;
47796;SDS011;33558;50.922;14.068;2023-07-16T13:27:19;2.00;;;1.30;;
47796;SDS011;33558;50.922;14.068;2023-07-16T13:29:46;2.58;;;1.45;;
47796;SDS011;33558;50.922;14.068;2023-07-16T13:32:13;2.85;;;1.50;;
47796;SDS011;33558;50.922;14.068;2023-07-16T13:34:39;4.03;;;1.50;;
47796;SDS011;33558;50.922;14.068;2023-07-16T13:37:06;2.75;;;1.73;;
47796;SDS011;33558;50.922;14.068;2023-07-16T13:39:33;2.85;;;1.25;;
47796;SDS011;33558;50.922;14.068;2023-07-16T13:42:01;2.42;;;1.25;;
47796;SDS011;33558;50.922;14.068;2023-07-16T13:44:28;1.85;;;1.38;;
47796;SDS011;33558;50.922;14.068;2023-07-16T13:46:55;3.38;;;1.60;;
47796;SDS011;33558;50.922;14.068;2023-07-16T13:49:22;3.65;;;1.63;;
47796;SDS011;33558;50.922;14.068;2023-07-16T13:51:49;5.65;;;1.50;;
47796;SDS011;33558;50.922;14.068;2023-07-16T13:54:16;2.85;;;1.60;;
47796;SDS011;33558;50.922;14.068;2023-07-16T13:56:44;2.92;;;1.40;;
47796;SDS011;33558;50.922;14.068;2023-07-16T13:59:14;3.72;;;1.83;;
47796;SDS011;33558;50.922;14.068;2023-07-16T14:01:41;2.25;;;1.50;;
47796;SDS011;33558;50.922;14.068;2023-07-16T14:04:08;3.33;;;1.80;;
47796;SDS011;33558;50.922;14.068;2023-07-16T14:06:35;3.05;;;1.33;;
47796;SDS011;33558;50.922;14.068;2023-07-16T14:09:02;2.15;;;1.40;;
47796;SDS011;33558;50.922;14.068;2023-07-16T14:11:30;1.70;;;1.30;;
47796;SDS011;33558;50.922;14.068;2023-07-16T14:13:57;3.08;;;1.60;;
47796;SDS011;33558;50.922;14.068;2023-07-16T14:16:26;2.33;;;1.42;;
47796;SDS011;33558;50.922;14.068;2023-07-16T14:18:53;3.33;;;1.30;;
47796;SDS011;33558;50.922;14.068;2023-07-16T14:21:20;2.55;;;1.50;;
47796;SDS011;33558;50.922;14.068;2023-07-16T14:23:51;1.65;;;1.15;;
47796;SDS011;33558;50.922;14.068;2023-07-16T14:26:18;3.25;;;1.30;;
47796;SDS011;33558;50.922;14.068;2023-07-16T14:28:45;4.25;;;1.60;;
47796;SDS011;33558;50.922;14.068;2023-07-16T14:31:12;2.00;;;1.20;;
47796;SDS011;33558;50.922;14.068;2023-07-16T14:33:40;2.80;;;1.35;;
47796;SDS011;33558;50.922;14.068;2023-07-16T14:36:07;2.67;;;1.42;;
47796;SDS011;33558;50.922;14.068;2023-07-16T14:38:34;2.40;;;1.48;;
47796;SDS011;33558;50.922;14.068;2023-07-16T14:41:01;5.13;;;1.65;;
47796;SDS011;33558;50.922;14.068;2023-07-16T14:43:28;2.92;;;1.55;;
47796;SDS011;33558;50.922;14.068;2023-07-16T14:45:55;2.13;;;1.30;;
47796;SDS011;33558;50.922;14.068;2023-07-16T14:48:22;2.38;;;1.35;;
47796;SDS011;33558;50.922;14.068;2023-07-16T14:50:50;2.67;;;1.70;;
47796;SDS011;33558;50.922;14.068;2023-07-16T14:53:17;4.35;;;1.60;;
47796;SDS011;33558;50.922;14.068;2023-07-16T14:55:46;2.55;;;1.40;;
47796;SDS011;33558;50.922;14.068;2023-07-16T14:58:13;2.75;;;1.33;;
47796;SDS011;33558;50.922;14.068;2023-07-16T15:00:42;2.58;;;1.45;;
47796;SDS011;33558;50.922;14.068;2023-07-16T15:03:09;4.25;;;1.48;;
47796;SDS011;33558;50.922;14.068;2023-07-16T15:05:38;2.53;;;1.60;;
47796;SDS011;33558;50.922;14.068;2023-07-16T15:08:08;2.92;;;1.60;;
47796;SDS011;33558;50.922;14.068;2023-07-16T15:10:35;2.15;;;1.50;;
47796;SDS011;33558;50.922;14.068;2023-07-16T15:13:06;2.22;;;1.38;;
47796;SDS011;33558;50.922;14.068;2023-07-16T15:15:33;4.35;;;1.55;;
47796;SDS011;33558;50.922;14.068;2023-07-16T15:18:00;2.83;;;1.60;;
47796;SDS011;33558;50.922;14.068;2023-07-16T15:20:27;2.88;;;1.60;;
47796;SDS011;33558;50.922;14.068;2023-07-16T15:22:54;2.50;;;1.60;;
47796;SDS011;33558;50.922;14.068;2023-07-16T15:25:23;2.42;;;1.40;;
47796;SDS011;33558;50.922;14.068;2023-07-16T15:27:50;2.45;;;1.52;;
47796;SDS011;33558;50.922;14.068;2023-07-16T15:30:17;2.85;;;1.30;;
47796;SDS011;33558;50.922;14.068;2023-07-16T15:32:45;2.72;;;1.70;;
47796;SDS011;33558;50.922;14.068;2023-07-16T15:35:11;4.05;;;1.77;;
47796;SDS011;33558;50.922;14.068;2023-07-16T15:37:38;2.65;;;1.15;;
47796;SDS011;33558;50.922;14.068;2023-07-16T15:40:11;4.35;;;1.52;;
47796;SDS011;33558;50.922;14.068;2023-07-16T15:42:40;2.25;;;1.38;;
47796;SDS011;33558;50.922;14.068;2023-07-16T15:45:09;3.33;;;1.50;;
47796;SDS011;33558;50.922;14.068;2023-07-16T15:47:38;3.97;;;1.67;;
47796;SDS011;33558;50.922;14.068;2023-07-16T15:50:05;2.70;;;1.35;;
47796;SDS011;33558;50.922;14.068;2023-07-16T15:52:32;4.85;;;1.65;;
47796;SDS011;33558;50.922;14.068;2023-07-16T15:54:59;3.78;;;1.70;;
47796;SDS011;33558;50.922;14.068;2023-07-16T15:57:26;2.90;;;1.70;;
47796;SDS011;33558;50.922;14.068;2023-07-16T15:59:56;4.25;;;1.70;;
47796;SDS011;33558;50.922;14.068;2023-07-16T16:02:22;5.60;;;1.80;;
47796;SDS011;33558;50.922;14.068;2023-07-16T16:04:49;3.70;;;1.30;;
47796;SDS011;33558;50.922;14.068;2023-07-16T16:07:16;3.80;;;2.03;;
47796;SDS011;33558;50.922;14.068;2023-07-16T16:09:42;3.25;;;1.63;;
47796;SDS011;33558;50.922;14.068;2023-07-16T16:12:09;3.30;;;1.42;;
47796;SDS011;33558;50.922;14.068;2023-07-16T16:14:36;4.13;;;1.40;;
47796;SDS011;33558;50.922;14.068;2023-07-16T16:17:05;3.15;;;1.88;;
47796;SDS011;33558;50.922;14.068;2023-07-16T16:19:31;4.22;;;1.73;;
47796;SDS011;33558;50.922;14.068;2023-07-16T16:21:59;2.30;;;1.27;;
47796;SDS011;33558;50.922;14.068;2023-07-16T16:24:26;3.35;;;1.88;;
47796;SDS011;33558;50.922;14.068;2023-07-16T16:26:53;2.33;;;1.42;;
47796;SDS011;33558;50.922;14.068;2023-07-16T16:29:19;3.63;;;1.70;;
47796;SDS011;33558;50.922;14.068;2023-07-16T16:31:46;4.05;;;1.60;;
47796;SDS011;33558;50.922;14.068;2023-07-16T16:34:14;3.13;;;1.58;;
47796;SDS011;33558;50.922;14.068;2023-07-16T16:36:41;5.45;;;1.70;;
47796;SDS011;33558;50.922;14.068;2023-07-16T16:39:08;4.63;;;1.48;;
47796;SDS011;33558;50.922;14.068;2023-07-16T16:41:35;6.10;;;1.60;;
47796;SDS011;33558;50.922;14.068;2023-07-16T16:44:02;4.10;;;1.50;;
47796;SDS011;33558;50.922;14.068;2023-07-16T16:46:29;3.13;;;1.75;;
47796;SDS011;33558;50.922;14.068;2023-07-16T16:48:56;3.05;;;1.50;;
47796;SDS011;33558;50.922;14.068;2023-07-16T16:51:24;2.90;;;1.60;;
47796;SDS011;33558;50.922;14.068;2023-07-16T16:53:51;2.10;;;1.20;;
47796;SDS011;33558;50.922;14.068;2023-07-16T16:56:17;2.78;;;1.40;;
47796;SDS011;33558;50.922;14.068;2023-07-16T16:58:44;2.80;;;1.55;;
47796;SDS011;33558;50.922;14.068;2023-07-16T17:01:11;3.33;;;1.40;;
47796;SDS011;33558;50.922;14.068;2023-07-16T17:03:37;2.72;;;1.33;;
47796;SDS011;33558;50.922;14.068;2023-07-16T17:06:04;3.13;;;1.67;;
47796;SDS011;33558;50.922;14.068;2023-07-16T17:08:32;2.00;;;1.42;;
47796;SDS011;33558;50.922;14.068;2023-07-16T17:10:59;4.20;;;1.60;;
47796;SDS011;33558;50.922;14.068;2023-07-16T17:13:26;3.63;;;1.75;;
47796;SDS011;33558;50.922;14.068;2023-07-16T17:15:52;2.97;;;1.40;;
47796;SDS011;33558;50.922;14.068;2023-07-16T17:18:19;3.47;;;1.65;;
47796;SDS011;33558;50.922;14.068;2023-07-16T17:20:46;3.05;;;1.67;;
47796;SDS011;33558;50.922;14.068;2023-07-16T17:23:14;3.88;;;1.65;;
47796;SDS011;33558;50.922;14.068;2023-07-16T17:25:42;2.38;;;1.25;;
47796;SDS011;33558;50.922;14.068;2023-07-16T17:28:09;2.45;;;1.30;;
47796;SDS011;33558;50.922;14.068;2023-07-16T17:30:36;2.83;;;1.50;;
47796;SDS011;33558;50.922;14.068;2023-07-16T17:33:03;2.15;;;1.40;;
47796;SDS011;33558;50.922;14.068;2023-07-16T17:35:30;4.28;;;1.73;;
47796;SDS011;33558;50.922;14.068;2023-07-16T17:37:57;4.88;;;1.73;;
47796;SDS011;33558;50.922;14.068;2023-07-16T17:40:23;3.17;;;1.60;;
47796;SDS011;33558;50.922;14.068;2023-07-16T17:42:52;3.53;;;1.48;;
47796;SDS011;33558;50.922;14.068;2023-07-16T17:45:19;2.08;;;1.30;;
47796;SDS011;33558;50.922;14.068;2023-07-16T17:47:46;3.15;;;2.05;;
47796;SDS011;33558;50.922;14.068;2023-07-16T17:50:12;2.80;;;1.60;;
47796;SDS011;33558;50.922;14.068;2023-07-16T17:52:39;3.90;;;1.58;;
47796;SDS011;33558;50.922;14.068;2023-07-16T17:55:06;1.92;;;1.33;;
47796;SDS011;33558;50.922;14.068;2023-07-16T17:57:35;4.43;;;1.50;;
47796;SDS011;33558;50.922;14.068;2023-07-16T18:00:03;4.68;;;1.50;;
47796;SDS011;33558;50.922;14.068;2023-07-16T18:02:33;4.03;;;1.48;;
47796;SDS011;33558;50.922;14.068;2023-07-16T18:05:00;4.18;;;1.63;;
47796;SDS011;33558;50.922;14.068;2023-07-16T18:07:28;4.43;;;1.90;;
47796;SDS011;33558;50.922;14.068;2023-07-16T18:09:54;3.38;;;1.80;;
47796;SDS011;33558;50.922;14.068;2023-07-16T18:12:21;2.75;;;1.40;;
47796;SDS011;33558;50.922;14.068;2023-07-16T18:14:49;3.75;;;1.40;;
47796;SDS011;33558;50.922;14.068;2023-07-16T18:17:17;3.25;;;1.73;;
47796;SDS011;33558;50.922;14.068;2023-07-16T18:19:44;4.72;;;1.60;;
47796;SDS011;33558;50.922;14.068;2023-07-16T18:22:12;4.40;;;1.70;;
47796;SDS011;33558;50.922;14.068;2023-07-16T18:24:38;3.55;;;1.95;;
47796;SDS011;33558;50.922;14.068;2023-07-16T18:27:05;4.20;;;1.80;;
47796;SDS011;33558;50.922;14.068;2023-07-16T18:29:32;6.20;;;2.60;;
47796;SDS011;33558;50.922;14.068;2023-07-16T18:34:38;3.42;;;2.05;;
47796;SDS011;33558;50.922;14.068;2023-07-16T18:37:05;4.05;;;1.77;;
47796;SDS011;33558;50.922;14.068;2023-07-16T18:39:32;3.00;;;1.80;;
47796;SDS011;33558;50.922;14.068;2023-07-16T18:41:59;3.47;;;1.80;;
47796;SDS011;33558;50.922;14.068;2023-07-16T18:44:29;3.10;;;1.58;;
47796;SDS011;33558;50.922;14.068;2023-07-16T18:46:55;4.68;;;1.75;;
47796;SDS011;33558;50.922;14.068;2023-07-16T18:49:22;3.70;;;2.10;;
47796;SDS011;33558;50.922;14.068;2023-07-16T18:51:51;4.70;;;1.90;;
47796;SDS011;33558;50.922;14.068;2023-07-16T18:54:18;3.40;;;1.90;;
47796;SDS011;33558;50.922;14.068;2023-07-16T18:56:45;3.10;;;2.05;;
47796;SDS011;33558;50.922;14.068;2023-07-16T18:59:11;4.53;;;2.28;;
47796;SDS011;33558;50.922;14.068;2023-07-16T19:01:40;3.60;;;2.33;;
47796;SDS011;33558;50.922;14.068;2023-07-16T19:39:14;3.67;;;2.15;;
47796;SDS011;33558;50.922;14.068;2023-07-16T19:45:30;4.25;;;2.60;;
47796;SDS011;33558;50.922;14.068;2023-07-16T19:48:57;3.70;;;1.77;;
47796;SDS011;33558;50.922;14.068;2023-07-16T19:51:30;4.43;;;2.00;;
47796;SDS011;33558;50.922;14.068;2023-07-16T19:54:51;3.50;;;2.10;;
47796;SDS011;33558;50.922;14.068;2023-07-16T19:57:19;3.40;;;1.80;;
47796;SDS011;33558;50.922;14.068;2023-07-16T19:59:46;4.22;;;1.80;;
47796;SDS011;33558;50.922;14.068;2023-07-16T20:02:13;4.47;;;1.95;;
47796;SDS011;33558;50.922;14.068;2023-07-16T20:04:42;7.40;;;2.30;;
47796;SDS011;33558;50.922;14.068;2023-07-16T20:10:59;3.73;;;2.03;;
47796;SDS011;33558;50.922;14.068;2023-07-16T20:18:15;3.90;;;2.35;;
47796;SDS011;33558;50.922;14.068;2023-07-16T20:20:46;3.55;;;1.98;;
47796;SDS011;33558;50.922;14.068;2023-07-16T20:23:13;4.43;;;2.38;;
47796;SDS011;33558;50.922;14.068;2023-07-16T20:25:48;4.10;;;2.72;;
47796;SDS011;33558;50.922;14.068;2023-07-16T20:34:19;3.63;;;2.22;;
47796;SDS011;33558;50.922;14.068;2023-07-16T20:47:58;6.40;;;2.22;;
47796;SDS011;33558;50.922;14.068;2023-07-16T20:54:35;4.45;;;2.38;;
47796;SDS011;33558;50.922;14.068;2023-07-16T21:22:39;3.80;;;2.00;;
47796;SDS011;33558;50.922;14.068;2023-07-16T21:25:07;5.50;;;2.20;;
47796;SDS011;33558;50.922;14.068;2023-07-16T21:27:39;3.35;;;2.20;;
47796;SDS011;33558;50.922;14.068;2023-07-16T21:30:10;6.28;;;2.65;;
47796;SDS011;33558;50.922;14.068;2023-07-16T21:32:38;6.70;;;2.55;;
47796;SDS011;33558;50.922;14.068;2023-07-16T21:35:07;4.05;;;2.25;;
47796;SDS011;33558;50.922;14.068;2023-07-16T21:40:17;5.38;;;2.47;;
47796;SDS011;33558;50.922;14.068;2023-07-16T21:42:46;4.55;;;2.40;;
47796;SDS011;33558;50.922;14.068;2023-07-16T21:45:13;5.28;;;2.22;;
47796;SDS011;33558;50.922;14.068;2023-07-16T21:47:43;4.50;;;2.40;;
47796;SDS011;33558;50.922;14.068;2023-07-16T21:50:11;3.58;;;2.42;;
47796;SDS011;33558;50.922;14.068;2023-07-16T21:52:38;6.30;;;2.90;;
47796;SDS011;33558;50.922;14.068;2023-07-16T21:55:07;3.35;;;2.47;;
47796;SDS011;33558;50.922;14.068;2023-07-16T21:57:37;4.20;;;2.63;;
47796;SDS011;33558;50.922;14.068;2023-07-16T22:00:05;5.30;;;2.40;;
47796;SDS011;33558;50.922;14.068;2023-07-16T22:02:38;5.05;;;2.80;;
47796;SDS011;33558;50.922;14.068;2023-07-16T22:05:06;3.58;;;2.35;;
47796;SDS011;33558;50.922;14.068;2023-07-16T22:07:38;4.45;;;2.30;;
47796;SDS011;33558;50.922;14.068;2023-07-16T22:10:07;6.95;;;3.17;;
47796;SDS011;33558;50.922;14.068;2023-07-16T22:12:35;4.00;;;2.35;;
47796;SDS011;33558;50.922;14.068;2023-07-16T22:15:06;5.18;;;2.80;;
